Time;durP1;ratioP1;P1;durP2;ratioP2;P2;SDS_P1;SDS_P2;PMS_P1;PMS_P2;Temp;Humidity;BMP_temperature;BMP_pressure;BME280_temperature;BME280_humidity;BME280_pressure;Samples;Min_cycle;Max_cycle;Signal;HPM_P1;HPM_P2
2023/08/12 00:04:45;;;;;;;23.02;15.52;;;;;;;19.72;100.00;101526.09;5092333;28;20796;-76
2023/08/12 00:07:10;;;;;;;24.90;16.00;;;;;;;19.68;100.00;101524.97;5091302;28;20385;-76
2023/08/12 00:12:57;;;;;;;22.45;15.10;;;;;;;19.84;100.00;101527.78;5076638;28;20047;-76
2023/08/12 00:18:44;;;;;;;28.65;15.55;;;;;;;19.82;100.00;101519.91;5092173;28;20297;-76
2023/08/12 00:21:10;;;;;;;24.17;15.47;;;;;;;19.87;100.00;101517.22;5073249;28;20048;-77
2023/08/12 00:26:56;;;;;;;25.73;14.73;;;;;;;19.90;100.00;101503.13;5090896;28;20105;-77
2023/08/12 00:32:43;;;;;;;24.88;14.55;;;;;;;19.91;100.00;101504.78;5091578;28;20357;-77
2023/08/12 00:38:30;;;;;;;23.23;14.00;;;;;;;19.87;100.00;101498.22;5091635;28;20563;-77
2023/08/12 00:40:56;;;;;;;21.20;14.37;;;;;;;19.80;100.00;101492.22;5090418;28;20114;-76
2023/08/12 00:46:43;;;;;;;19.88;13.48;;;;;;;19.76;100.00;101488.38;5075222;28;20105;-77
2023/08/12 00:52:31;;;;;;;20.83;13.88;;;;;;;19.81;100.00;101480.28;5091723;28;20081;-77
2023/08/12 00:58:19;;;;;;;24.95;15.15;;;;;;;19.91;100.00;101483.06;5079882;28;20054;-76
2023/08/12 01:04:06;;;;;;;26.52;14.00;;;;;;;20.06;100.00;101482.34;5091364;28;20213;-76
2023/08/12 01:09:53;;;;;;;22.17;14.52;;;;;;;20.05;100.00;101467.16;5091598;28;20511;-76
2023/08/12 01:15:43;;;;;;;24.83;14.75;;;;;;;20.03;100.00;101469.31;5095743;28;20070;-76
2023/08/12 01:21:32;;;;;;;24.13;14.50;;;;;;;19.98;100.00;101455.72;5096232;28;20070;-77
2023/08/12 01:31:14;;;;;;;19.55;14.35;;;;;;;20.02;100.00;101444.06;5096495;28;20043;-76
2023/08/12 01:37:04;;;;;;;21.67;14.90;;;;;;;20.02;100.00;101433.19;5098089;28;20043;-76
2023/08/12 01:42:52;;;;;;;28.52;16.00;;;;;;;19.97;100.00;101429.63;5078712;28;20102;-77
2023/08/12 01:48:39;;;;;;;26.25;15.75;;;;;;;19.95;100.00;101431.78;5094332;28;20416;-79
2023/08/12 01:51:05;;;;;;;25.02;15.85;;;;;;;19.92;100.00;101432.28;5092101;28;20040;-77
2023/08/12 01:53:30;;;;;;;22.90;15.77;;;;;;;19.97;100.00;101426.91;5094227;28;20384;-77
2023/08/12 01:55:55;;;;;;;24.25;14.93;;;;;;;19.98;100.00;101420.41;5094066;28;20042;-77
2023/08/12 01:58:20;;;;;;;28.63;16.45;;;;;;;20.05;100.00;101419.09;5075039;28;20040;-77
2023/08/12 02:07:29;;;;;;;20.88;14.90;;;;;;;20.08;100.00;101413.13;5094258;28;20401;-77
2023/08/12 02:13:16;;;;;;;29.60;15.05;;;;;;;20.01;100.00;101409.84;5094094;28;20109;-76
2023/08/12 02:19:03;;;;;;;21.40;14.95;;;;;;;19.97;100.00;101403.31;5078624;28;20316;-78
2023/08/12 02:24:51;;;;;;;16.27;11.63;;;;;;;20.01;100.00;101411.75;5094034;28;20046;-76
2023/08/12 02:30:37;;;;;;;17.20;11.95;;;;;;;19.94;100.00;101400.28;5081677;28;20564;-75
2023/08/12 02:36:26;;;;;;;19.60;12.60;;;;;;;19.91;100.00;101395.38;5093786;28;20552;-75
2023/08/12 02:42:13;;;;;;;17.30;11.63;;;;;;;19.86;100.00;101385.31;5093573;28;20388;-75
2023/08/12 02:44:38;;;;;;;18.57;11.67;;;;;;;19.87;100.00;101377.97;5093287;28;20024;-75
2023/08/12 02:47:04;;;;;;;16.13;11.20;;;;;;;19.85;100.00;101377.44;5074307;28;20298;-75
2023/08/12 02:52:51;;;;;;;18.13;11.77;;;;;;;19.82;100.00;101377.97;5079025;28;20315;-75
2023/08/12 02:55:16;;;;;;;16.20;11.60;;;;;;;19.80;100.00;101373.59;5092421;28;20040;-75
2023/08/12 03:01:06;;;;;;;18.70;11.45;;;;;;;19.76;100.00;101367.06;5093505;28;20035;-76
2023/08/12 03:06:53;;;;;;;17.10;11.65;;;;;;;19.70;100.00;101364.59;5094094;28;20134;-76
2023/08/12 03:12:40;;;;;;;20.85;12.50;;;;;;;19.63;100.00;101364.00;5093873;28;20051;-76
2023/08/12 03:18:27;;;;;;;19.10;10.85;;;;;;;19.53;100.00;101358.47;5093231;28;20142;-76
2023/08/12 03:24:14;;;;;;;17.35;10.88;;;;;;;19.44;100.00;101345.41;5076928;28;20282;-78
2023/08/12 03:30:00;;;;;;;15.93;10.10;;;;;;;19.45;100.00;101330.75;5092483;28;20305;-76
2023/08/12 03:35:48;;;;;;;12.77;9.68;;;;;;;19.48;100.00;101329.41;5079530;28;20803;-75
2023/08/12 03:38:14;;;;;;;16.77;9.27;;;;;;;19.46;100.00;101328.88;5090612;28;20031;-75
2023/08/12 03:44:01;;;;;;;15.77;9.75;;;;;;;19.40;100.00;101319.88;5092795;28;20173;-76
2023/08/12 03:49:48;;;;;;;16.27;10.10;;;;;;;19.23;100.00;101324.63;5092326;28;20340;-75
2023/08/12 03:55:35;;;;;;;18.45;10.63;;;;;;;19.27;100.00;101316.78;5092776;28;20081;-76
2023/08/12 03:58:01;;;;;;;19.55;9.73;;;;;;;19.32;100.00;101314.91;5092399;28;20384;-76
2023/08/12 04:03:49;;;;;;;19.58;10.07;;;;;;;19.28;100.00;101308.38;5092394;28;20030;-75
2023/08/12 04:09:35;;;;;;;13.13;9.77;;;;;;;19.30;100.00;101305.41;5080040;28;20055;-75
2023/08/12 04:15:22;;;;;;;19.25;10.13;;;;;;;19.37;100.00;101297.84;5092129;28;20362;-75
2023/08/12 04:21:09;;;;;;;19.38;9.63;;;;;;;19.34;100.00;101290.25;5092109;28;20055;-75
2023/08/12 04:26:56;;;;;;;14.55;8.65;;;;;;;19.06;100.00;101294.94;5091871;28;20277;-75
2023/08/12 04:32:42;;;;;;;12.23;8.57;;;;;;;18.77;100.00;101291.72;5092024;28;20339;-74
2023/08/12 04:38:31;;;;;;;12.88;8.07;;;;;;;18.53;100.00;101280.38;5092192;28;20495;-75
2023/08/12 04:44:27;;;;;;;13.95;9.27;;;;;;;18.51;100.00;101304.19;5092212;28;20051;-75
2023/08/12 04:50:14;;;;;;;17.63;9.13;;;;;;;18.54;100.00;101263.03;5095576;28;20059;-76
2023/08/12 04:56:02;;;;;;;19.27;11.50;;;;;;;18.48;100.00;101269.47;5095327;28;20404;-75
2023/08/12 05:01:49;;;;;;;19.23;11.15;;;;;;;18.48;100.00;101268.63;5095355;28;20131;-77
2023/08/12 05:07:36;;;;;;;21.83;11.32;;;;;;;18.49;100.00;101267.56;5095269;28;20277;-74
2023/08/12 05:13:23;;;;;;;23.33;11.35;;;;;;;18.38;100.00;101252.31;5094989;28;20035;-75
2023/08/12 05:19:10;;;;;;;16.45;10.27;;;;;;;18.38;100.00;101247.72;5081318;28;20690;-75
2023/08/12 05:24:57;;;;;;;27.73;11.95;;;;;;;18.35;100.00;101245.50;5094832;28;20318;-75
2023/08/12 05:30:44;;;;;;;24.27;11.63;;;;;;;18.39;100.00;101256.66;5083407;28;20337;-77
2023/08/12 05:36:31;;;;;;;18.73;11.57;;;;;;;18.40;100.00;101237.44;5094785;28;20039;-76
2023/08/12 05:42:18;;;;;;;19.73;11.98;;;;;;;18.37;100.00;101235.25;5094742;28;20126;-77
2023/08/12 05:48:05;;;;;;;18.33;11.85;;;;;;;18.45;100.00;101239.38;5094790;28;20376;-76
2023/08/12 05:50:30;;;;;;;21.42;12.60;;;;;;;18.43;100.00;101222.56;5075544;28;20045;-77
2023/08/12 05:56:17;;;;;;;17.92;11.80;;;;;;;18.39;100.00;101229.56;5094482;28;20359;-76
2023/08/12 06:02:04;;;;;;;16.60;10.15;;;;;;;18.44;100.00;101222.31;5081588;28;20367;-74
2023/08/12 06:07:51;;;;;;;12.30;8.35;;;;;;;18.37;100.00;101221.69;5094445;28;20043;-75
2023/08/12 06:13:38;;;;;;;15.45;9.93;;;;;;;18.35;100.00;101209.50;5094837;28;20097;-74
2023/08/12 06:19:25;;;;;;;12.20;7.82;;;;;;;18.44;100.00;101213.38;5093896;28;20293;-74
2023/08/12 06:21:50;;;;;;;10.55;7.63;;;;;;;18.44;100.00;101210.66;5093748;28;20024;-75
2023/08/12 06:24:15;;;;;;;11.67;6.77;;;;;;;18.44;100.00;101214.19;5093741;28;20036;-77
2023/08/12 06:26:41;;;;;;;11.63;7.87;;;;;;;18.34;100.00;101199.75;5092796;28;20289;-75
2023/08/12 06:29:06;;;;;;;12.20;8.10;;;;;;;18.34;100.00;101202.44;5093492;28;20289;-76
2023/08/12 06:34:53;;;;;;;9.63;7.28;;;;;;;18.39;100.00;101197.88;5093704;28;20301;-75
2023/08/12 06:37:19;;;;;;;9.43;7.83;;;;;;;18.38;100.00;101185.44;5093484;28;20470;-77
2023/08/12 06:39:44;;;;;;;10.43;8.00;;;;;;;18.48;100.00;101193.63;5093202;28;20281;-76
2023/08/12 06:45:31;;;;;;;10.35;7.45;;;;;;;18.57;100.00;101189.41;5093524;28;20277;-78
2023/08/12 06:47:56;;;;;;;12.50;7.73;;;;;;;18.55;100.00;101179.91;5092832;28;20048;-76
2023/08/12 06:53:43;;;;;;;12.50;7.25;;;;;;;18.70;100.00;101171.09;5093668;28;20047;-76
2023/08/12 06:59:31;;;;;;;10.73;7.60;;;;;;;18.61;100.00;101159.88;5093592;28;20043;-74
2023/08/12 07:01:56;;;;;;;9.50;7.50;;;;;;;18.65;100.00;101169.16;5074343;28;20484;-74
2023/08/12 07:07:43;;;;;;;8.80;7.60;;;;;;;18.82;100.00;101159.00;5093607;28;20050;-75
2023/08/12 07:13:30;;;;;;;10.63;8.63;;;;;;;18.88;100.00;101154.41;5093138;28;20376;-74
2023/08/12 07:19:17;;;;;;;11.57;9.90;;;;;;;18.75;100.00;101152.16;5093173;28;20059;-76
2023/08/12 07:25:04;;;;;;;12.45;10.23;;;;;;;18.80;100.00;101149.50;5093183;28;20324;-74
2023/08/12 07:30:52;;;;;;;13.35;11.30;;;;;;;18.89;100.00;101147.94;5092940;28;20730;-76
2023/08/12 07:36:40;;;;;;;11.45;10.25;;;;;;;19.00;100.00;101146.91;5079520;28;20101;-76
2023/08/12 07:42:27;;;;;;;12.15;9.95;;;;;;;18.99;100.00;101163.41;5092418;28;20115;-75
2023/08/12 07:48:14;;;;;;;11.27;9.40;;;;;;;19.08;100.00;101153.72;5092531;28;20554;-75
2023/08/12 07:50:39;;;;;;;10.53;9.23;;;;;;;19.10;100.00;101146.16;5091440;28;20082;-76
2023/08/12 07:56:26;;;;;;;12.63;8.90;;;;;;;19.23;100.00;101140.25;5092489;28;20035;-75
2023/08/12 07:58:52;;;;;;;11.27;9.77;;;;;;;19.28;100.00;101140.25;5091142;28;20119;-75
2023/08/12 08:04:39;;;;;;;8.27;7.40;;;;;;;19.28;100.00;101158.44;5091965;28;20277;-77
2023/08/12 08:10:25;;;;;;;8.63;7.50;;;;;;;19.40;100.00;101153.63;5092039;28;20641;-80
2023/08/12 08:16:12;;;;;;;7.55;6.65;;;;;;;19.43;100.00;101153.91;5092311;28;20063;-79
2023/08/12 08:22:00;;;;;;;6.68;5.97;;;;;;;19.44;100.00;101179.13;5091849;28;20347;-77
2023/08/12 08:27:47;;;;;;;6.82;5.85;;;;;;;19.38;100.00;101178.28;5092322;28;20050;-77
2023/08/12 08:33:34;;;;;;;9.15;6.50;;;;;;;19.47;100.00;101182.13;5091794;28;20276;-79
2023/08/12 08:39:21;;;;;;;9.10;7.68;;;;;;;19.45;100.00;101186.19;5091363;28;20506;-79
2023/08/12 08:45:12;;;;;;;9.73;8.63;;;;;;;19.49;100.00;101190.81;5091576;28;20743;-78
2023/08/12 08:47:38;;;;;;;10.38;9.25;;;;;;;19.45;100.00;101197.84;5072907;28;20039;-77
2023/08/12 08:53:25;;;;;;;13.27;10.13;;;;;;;19.43;100.00;101197.28;5091530;28;20050;-77
2023/08/12 08:59:12;;;;;;;13.43;11.63;;;;;;;19.76;100.00;101211.56;5091398;28;20693;-77
2023/08/12 09:05:01;;;;;;;13.63;10.60;;;;;;;20.11;100.00;101202.69;5091545;28;20039;-74
2023/08/12 09:10:48;;;;;;;11.10;10.00;;;;;;;19.98;100.00;101225.75;5075515;28;20044;-79
2023/08/12 09:16:35;;;;;;;7.80;6.60;;;;;;;19.44;100.00;101227.94;5091519;28;20039;-77
2023/08/12 09:22:25;;;;;;;7.78;5.50;;;;;;;19.71;100.00;101239.50;5091660;28;20274;-81
2023/08/12 09:28:13;;;;;;;5.43;4.93;;;;;;;19.86;100.00;101260.44;5091373;28;20093;-78
2023/08/12 09:34:08;;;;;;;4.80;3.88;;;;;;;19.71;100.00;101268.53;5094325;28;20124;-78
2023/08/12 09:39:56;;;;;;;6.18;5.57;;;;;;;19.28;100.00;101272.31;5094669;28;20042;-79
2023/08/12 09:45:45;;;;;;;7.78;7.05;;;;;;;18.83;100.00;101265.50;5094691;28;20070;-84
2023/08/12 09:51:39;;;;;;;8.50;7.22;;;;;;;19.07;100.00;101276.78;5093887;28;20097;-82
2023/08/12 09:57:31;;;;;;;8.15;7.40;;;;;;;19.02;100.00;101277.56;5094412;28;20105;-76
2023/08/12 10:06:41;;;;;;;6.50;3.90;;;;;;;19.54;100.00;101289.59;5094295;28;20123;-74
2023/08/12 10:12:29;;;;;;;6.93;3.35;;;;;;;20.51;100.00;101291.63;5093956;28;20069;-75
2023/08/12 10:18:18;;;;;;;3.58;2.30;;;;;;;20.45;100.00;101300.03;5094146;28;20046;-76
2023/08/12 10:24:06;;;;;;;6.93;2.42;;;;;;;20.55;100.00;101303.59;5094145;28;20582;-80
2023/08/12 10:29:56;;;;;;;5.43;2.40;;;;;;;21.22;100.00;101304.44;5093123;28;20047;-80
2023/08/12 10:35:46;;;;;;;5.43;2.25;;;;;;;21.81;100.00;101285.56;5093419;28;20039;-76
2023/08/12 10:41:35;;;;;;;7.18;2.35;;;;;;;22.08;100.00;101281.66;5093580;28;20110;-83
2023/08/12 10:47:22;;;;;;;4.22;2.17;;;;;;;22.18;100.00;101296.03;5093117;28;20042;-83
2023/08/12 10:53:25;;;;;;;4.13;2.67;;;;;;;21.92;100.00;101298.03;5093102;28;20309;-76
2023/08/12 10:59:44;;;;;;;5.85;2.45;;;;;;;21.52;100.00;101303.59;5094332;28;20051;-89
2023/08/12 11:05:38;;;;;;;4.95;2.13;;;;;;;21.71;100.00;101310.09;5093858;28;20065;-82
2023/08/12 11:11:27;;;;;;;6.47;2.45;;;;;;;21.45;100.00;101313.97;5092955;28;20077;-85
2023/08/12 11:17:15;;;;;;;7.20;2.08;;;;;;;21.89;100.00;101309.47;5093645;28;20393;-86
2023/08/12 11:23:03;;;;;;;9.57;2.45;;;;;;;22.84;100.00;101319.34;5092812;28;20039;-83
2023/08/12 11:28:50;;;;;;;5.70;2.53;;;;;;;22.99;100.00;101305.59;5093453;28;20124;-78
2023/08/12 11:34:38;;;;;;;7.30;2.40;;;;;;;23.03;100.00;101301.19;5095033;28;20412;-80
2023/08/12 11:40:27;;;;;;;7.45;2.25;;;;;;;23.05;100.00;101303.63;5093589;28;20129;-80
2023/08/12 11:46:18;;;;;;;4.78;2.00;;;;;;;23.04;100.00;101304.75;5092800;28;20086;-81
2023/08/12 11:52:06;;;;;;;7.15;2.50;;;;;;;22.76;100.00;101306.28;5092715;28;20059;-81
2023/08/12 11:54:32;;;;;;;6.20;2.50;;;;;;;22.63;100.00;101306.94;5091451;28;20489;-80
2023/08/12 12:00:19;;;;;;;7.05;2.60;;;;;;;22.98;100.00;101312.16;5093245;28;20047;-81
2023/08/12 12:06:06;;;;;;;6.10;2.70;;;;;;;23.43;100.00;101310.13;5092850;28;20244;-81
2023/08/12 12:11:53;;;;;;;7.15;2.55;;;;;;;23.73;100.00;101306.28;5092007;28;20530;-81
2023/08/12 12:17:41;;;;;;;11.63;3.70;;;;;;;23.74;100.00;101294.25;5092331;28;20050;-84
2023/08/12 12:23:29;;;;;;;8.18;3.08;;;;;;;24.52;100.00;101318.38;5092591;28;20134;-79
2023/08/12 12:29:16;;;;;;;8.82;3.00;;;;;;;24.76;100.00;101320.22;5095191;28;20411;-80
2023/08/12 12:35:03;;;;;;;8.88;2.88;;;;;;;25.00;99.55;101307.28;5094412;28;20128;-80
2023/08/12 12:40:51;;;;;;;6.65;2.53;;;;;;;25.34;95.68;101312.41;5094177;28;20070;-79
2023/08/12 12:46:37;;;;;;;9.75;2.72;;;;;;;26.65;89.56;101323.75;5097153;28;20323;-80
2023/08/12 12:52:24;;;;;;;7.47;2.65;;;;;;;26.12;87.17;101322.41;5093115;28;20297;-78
2023/08/12 12:58:11;;;;;;;7.60;3.40;;;;;;;25.80;86.11;101311.59;5095608;28;20296;-79
2023/08/12 13:03:58;;;;;;;4.95;2.50;;;;;;;25.78;88.96;101331.06;5094600;28;20273;-79
2023/08/12 13:09:45;;;;;;;7.68;3.05;;;;;;;26.35;79.96;101336.22;5096951;28;20047;-77
2023/08/12 13:15:32;;;;;;;6.10;2.70;;;;;;;25.60;84.53;101332.75;5095974;28;20314;-78
2023/08/12 13:21:19;;;;;;;6.72;3.08;;;;;;;25.96;85.46;101339.47;5095423;28;20268;-77
2023/08/12 13:27:07;;;;;;;7.70;3.35;;;;;;;25.54;82.22;101335.88;5094795;28;20042;-84
2023/08/12 13:32:55;;;;;;;6.70;2.72;;;;;;;26.51;75.02;101348.47;5094337;28;20055;-80
2023/08/12 13:38:42;;;;;;;7.43;2.90;;;;;;;25.74;78.04;101349.25;5095456;28;20051;-77
2023/08/12 13:44:29;;;;;;;9.50;3.03;;;;;;;26.28;77.87;101357.72;5094671;28;20047;-80
2023/08/12 13:50:15;;;;;;;6.28;2.75;;;;;;;25.66;79.26;101352.63;5094420;28;20039;-78
2023/08/12 13:56:03;;;;;;;9.00;2.95;;;;;;;24.63;82.26;101343.66;5094599;28;20137;-79
2023/08/12 14:01:49;;;;;;;10.60;3.65;;;;;;;24.27;82.25;101346.03;5093461;28;20109;-80
2023/08/12 14:07:37;;;;;;;8.07;4.00;;;;;;;24.23;83.49;101345.00;5093874;28;20054;-80
2023/08/12 14:13:23;;;;;;;8.65;3.35;;;;;;;24.03;87.11;101351.56;5093838;28;20094;-80
2023/08/12 14:19:10;;;;;;;10.43;3.60;;;;;;;23.91;84.47;101356.59;5094065;28;20075;-79
2023/08/12 14:24:57;;;;;;;7.07;3.90;;;;;;;24.00;84.85;101357.59;5094010;28;20285;-82
2023/08/12 14:30:44;;;;;;;8.50;4.63;;;;;;;23.99;81.93;101340.38;5093909;28;20404;-79
2023/08/12 14:36:31;;;;;;;7.70;4.57;;;;;;;24.03;89.01;101346.91;5093855;28;20097;-81
2023/08/12 14:45:44;;;;;;;5.85;4.53;;;;;;;24.42;83.21;101336.84;5093314;28;20097;-80
2023/08/12 14:51:31;;;;;;;7.35;5.28;;;;;;;24.36;84.01;101325.19;5092719;28;20039;-79
2023/08/12 14:57:18;;;;;;;8.82;5.43;;;;;;;24.36;83.73;101330.66;5092053;28;20315;-82
2023/08/12 15:03:05;;;;;;;9.30;5.63;;;;;;;24.30;87.66;101334.56;5092473;28;20066;-81
2023/08/12 15:08:53;;;;;;;9.18;5.68;;;;;;;24.19;84.79;101331.09;5093282;28;20038;-80
2023/08/12 15:14:40;;;;;;;11.50;5.78;;;;;;;23.84;84.31;101324.16;5093442;28;20050;-79
2023/08/12 15:20:26;;;;;;;9.75;6.25;;;;;;;24.03;86.33;101329.69;5093163;28;20135;-80
2023/08/12 15:26:13;;;;;;;16.88;6.43;;;;;;;24.13;87.59;101328.75;5091946;28;20094;-79
2023/08/12 15:32:00;;;;;;;10.73;5.60;;;;;;;24.85;90.72;101330.19;5091815;28;20335;-81
2023/08/12 15:37:48;;;;;;;8.50;5.35;;;;;;;25.12;86.36;101325.94;5092271;28;20051;-79
2023/08/12 15:40:14;;;;;;;7.97;5.35;;;;;;;25.12;84.08;101323.22;5091178;28;20035;-79
2023/08/12 15:46:01;;;;;;;7.28;4.70;;;;;;;24.97;86.48;101330.53;5091922;28;20047;-79
2023/08/12 15:51:48;;;;;;;9.00;3.92;;;;;;;24.88;87.19;101326.06;5093405;28;20301;-82
2023/08/12 15:57:35;;;;;;;8.30;3.90;;;;;;;24.26;83.25;101323.34;5092493;28;20284;-77
2023/08/12 16:03:22;;;;;;;8.07;3.38;;;;;;;23.72;89.34;101329.25;5091826;28;20281;-79
2023/08/12 16:09:09;;;;;;;6.40;3.47;;;;;;;23.56;88.87;101335.94;5092059;28;20292;-79
2023/08/12 16:14:57;;;;;;;10.10;4.28;;;;;;;24.00;91.71;101338.47;5093596;28;20039;-81
2023/08/12 16:20:44;;;;;;;7.00;3.30;;;;;;;24.42;84.44;101318.53;5078513;28;20411;-82
2023/08/12 16:26:31;;;;;;;8.77;3.55;;;;;;;24.60;89.30;101320.47;5092548;28;20039;-81
2023/08/12 16:28:56;;;;;;;8.33;4.20;;;;;;;24.58;86.12;101330.88;5091388;28;20396;-78
2023/08/12 16:34:43;;;;;;;10.57;3.80;;;;;;;24.10;87.02;101321.94;5091906;28;20050;-78
2023/08/12 16:40:32;;;;;;;11.00;3.88;;;;;;;23.40;92.64;101337.97;5091407;28;20343;-79
2023/08/12 16:46:22;;;;;;;7.80;3.95;;;;;;;23.92;95.37;101339.91;5094776;28;20100;-78
2023/08/12 16:52:08;;;;;;;8.80;3.83;;;;;;;24.49;93.03;101338.09;5097714;28;20124;-81
2023/08/12 16:57:55;;;;;;;11.07;3.65;;;;;;;23.90;95.36;101347.59;5096692;28;20276;-77
2023/08/12 17:03:42;;;;;;;9.02;3.50;;;;;;;23.74;92.35;101344.22;5095547;28;20277;-79
2023/08/12 17:09:33;;;;;;;10.98;3.47;;;;;;;23.94;93.39;101334.97;5096756;28;20068;-79
2023/08/12 17:15:20;;;;;;;9.43;3.55;;;;;;;23.80;88.15;101347.72;5096631;28;20047;-78
2023/08/12 17:21:07;;;;;;;11.13;3.63;;;;;;;23.55;89.61;101348.75;5094811;28;20376;-76
2023/08/12 17:26:54;;;;;;;7.57;3.25;;;;;;;23.46;90.45;101345.84;5094598;28;20089;-78
2023/08/12 17:32:41;;;;;;;9.63;3.75;;;;;;;23.42;92.33;101335.81;5094135;28;20133;-80
2023/08/12 17:38:28;;;;;;;11.93;3.55;;;;;;;23.07;92.21;101354.09;5094867;28;20587;-82
2023/08/12 17:44:15;;;;;;;9.77;3.38;;;;;;;22.77;92.79;101352.38;5095544;28;20281;-76
2023/08/12 17:50:03;;;;;;;10.30;3.05;;;;;;;22.79;94.05;101342.00;5093858;28;20514;-77
2023/08/12 17:59:11;;;;;;;11.52;3.28;;;;;;;22.61;93.97;101339.13;5093705;28;20085;-80
2023/08/12 18:04:58;;;;;;;7.85;3.30;;;;;;;22.32;94.65;101356.19;5093758;28;20117;-77
2023/08/12 18:10:45;;;;;;;7.80;3.03;;;;;;;22.09;96.56;101354.09;5093451;28;20347;-81
2023/08/12 18:16:33;;;;;;;11.90;3.95;;;;;;;21.76;96.02;101361.81;5093725;28;20043;-83
2023/08/12 18:22:20;;;;;;;11.45;3.40;;;;;;;21.43;97.66;101376.00;5093961;28;20042;-83
2023/08/12 18:28:07;;;;;;;6.85;3.10;;;;;;;21.21;97.66;101363.47;5095440;28;20114;-80
2023/08/12 18:33:54;;;;;;;8.75;3.40;;;;;;;21.08;100.00;101383.03;5097277;28;20082;-80
2023/08/12 18:39:41;;;;;;;7.43;3.08;;;;;;;20.87;100.00;101382.22;5093006;28;20269;-79
2023/08/12 18:45:29;;;;;;;7.15;3.20;;;;;;;20.67;100.00;101399.28;5092649;28;20714;-80
2023/08/12 18:51:16;;;;;;;7.88;3.40;;;;;;;20.50;100.00;101403.28;5092974;28;20039;-80
2023/08/12 18:57:03;;;;;;;7.10;2.95;;;;;;;20.41;100.00;101413.84;5092640;28;20508;-79
2023/08/12 19:02:50;;;;;;;6.25;3.10;;;;;;;20.20;100.00;101412.09;5092796;28;20498;-82
2023/08/12 19:08:37;;;;;;;8.57;3.47;;;;;;;20.04;100.00;101414.75;5092668;28;20125;-83
2023/08/12 19:14:25;;;;;;;10.15;3.42;;;;;;;20.02;100.00;101430.47;5092636;28;20331;-82
2023/08/12 19:20:12;;;;;;;7.53;2.92;;;;;;;19.97;100.00;101433.16;5093239;28;20119;-82
2023/08/12 19:22:37;;;;;;;8.23;3.03;;;;;;;19.93;100.00;101437.47;5075043;28;20483;-81
2023/08/12 19:28:24;;;;;;;8.07;3.22;;;;;;;19.72;100.00;101433.81;5100140;28;20039;-82
2023/08/12 19:34:11;;;;;;;8.60;2.90;;;;;;;19.75;100.00;101451.47;5093299;28;20074;-84
2023/08/12 19:39:58;;;;;;;5.85;2.70;;;;;;;19.63;100.00;101450.81;5091947;28;20293;-80
2023/08/12 19:45:45;;;;;;;8.98;4.00;;;;;;;19.35;100.00;101460.84;5092187;28;20277;-78
2023/08/12 19:51:32;;;;;;;7.13;3.15;;;;;;;19.16;100.00;101462.31;5093861;28;20308;-81
2023/08/12 19:57:19;;;;;;;10.00;3.75;;;;;;;18.90;100.00;101454.97;5091824;28;20281;-83
2023/08/12 20:03:06;;;;;;;7.72;3.15;;;;;;;18.64;100.00;101449.25;5091949;28;20332;-79
2023/08/12 20:08:53;;;;;;;7.50;3.70;;;;;;;18.41;100.00;101457.59;5091928;28;20067;-82
2023/08/12 20:14:40;;;;;;;9.57;3.25;;;;;;;18.24;100.00;101460.38;5091038;28;20034;-81
2023/08/12 20:20:28;;;;;;;11.57;3.35;;;;;;;17.99;100.00;101447.28;5093060;28;20144;-81
2023/08/12 20:26:15;;;;;;;9.60;3.83;;;;;;;18.01;100.00;101447.03;5091347;28;20679;-80
2023/08/12 20:32:02;;;;;;;11.80;3.85;;;;;;;17.94;100.00;101450.75;5091118;28;20304;-81
2023/08/12 20:37:49;;;;;;;8.18;3.10;;;;;;;17.78;100.00;101458.84;5091654;28;20058;-76
2023/08/12 20:43:38;;;;;;;7.43;3.20;;;;;;;17.70;100.00;101453.88;5091042;28;20054;-78
2023/08/12 20:49:24;;;;;;;6.53;3.28;;;;;;;17.41;100.00;101455.78;5091076;28;20109;-81
2023/08/12 20:55:12;;;;;;;12.15;4.28;;;;;;;17.31;100.00;101445.59;5090835;28;20066;-76
2023/08/12 21:00:58;;;;;;;8.00;3.50;;;;;;;17.17;100.00;101463.19;5091307;28;20093;-75
2023/08/12 21:06:45;;;;;;;8.90;4.57;;;;;;;17.05;100.00;101463.22;5090715;28;20273;-77
2023/08/12 21:12:32;;;;;;;8.90;3.83;;;;;;;16.95;100.00;101454.94;5090731;28;20650;-79
2023/08/12 21:18:20;;;;;;;7.68;4.10;;;;;;;17.00;100.00;101463.97;5091011;28;20281;-87
2023/08/12 21:24:07;;;;;;;8.77;4.10;;;;;;;16.98;100.00;101460.69;5091023;28;20055;-83
2023/08/12 21:29:54;;;;;;;9.02;3.97;;;;;;;16.98;100.00;101452.56;5093648;28;20055;-79
2023/08/12 21:35:41;;;;;;;9.15;3.83;;;;;;;17.01;100.00;101467.47;5095406;28;20280;-94
2023/08/12 21:41:28;;;;;;;9.43;3.40;;;;;;;16.87;100.00;101461.56;5097164;28;20055;-95
2023/08/12 21:47:15;;;;;;;10.20;3.70;;;;;;;16.85;100.00;101473.66;5096289;28;20050;-87
2023/08/12 21:53:02;;;;;;;10.93;3.95;;;;;;;16.86;100.00;101467.22;5094631;28;20285;-87
2023/08/12 21:58:49;;;;;;;12.13;4.40;;;;;;;16.83;100.00;101471.22;5094766;28;20062;-88
2023/08/12 22:04:36;;;;;;;9.60;4.10;;;;;;;16.79;100.00;101478.16;5093958;28;20728;-86
2023/08/12 22:10:23;;;;;;;14.07;4.47;;;;;;;16.72;100.00;101469.34;5094452;28;20124;-90
2023/08/12 22:16:10;;;;;;;7.90;3.78;;;;;;;16.66;100.00;101468.44;5096426;28;20285;-94
2023/08/12 22:21:59;;;;;;;13.18;4.15;;;;;;;16.78;100.00;101476.53;5096804;28;20066;-90
2023/08/12 22:27:45;;;;;;;10.43;3.30;;;;;;;16.78;100.00;101468.41;5096316;28;20400;-91
2023/08/12 22:33:33;;;;;;;10.45;3.50;;;;;;;16.83;100.00;101470.38;5098899;28;20872;-89
2023/08/12 22:39:21;;;;;;;8.95;3.42;;;;;;;16.85;100.00;101470.97;5101319;28;20860;-85
2023/08/12 22:45:09;;;;;;;6.82;3.38;;;;;;;16.82;100.00;101480.38;5094643;28;20047;-84
2023/08/12 22:50:56;;;;;;;9.20;2.95;;;;;;;16.79;100.00;101466.53;5095271;28;20141;-87
2023/08/12 22:56:43;;;;;;;9.52;3.83;;;;;;;16.82;100.00;101474.16;5094627;28;20043;-87
2023/08/12 23:02:30;;;;;;;10.57;3.40;;;;;;;16.80;100.00;101469.00;5095393;28;20040;-89
2023/08/12 23:08:17;;;;;;;10.30;2.80;;;;;;;16.88;100.00;101473.19;5093828;28;20529;-84
2023/08/12 23:14:04;;;;;;;10.70;3.58;;;;;;;16.79;100.00;101475.47;5093267;28;20085;-83
2023/08/12 23:19:51;;;;;;;11.63;3.40;;;;;;;16.77;100.00;101474.88;5092814;28;20059;-81
2023/08/12 23:25:38;;;;;;;11.55;4.00;;;;;;;16.70;100.00;101472.28;5092973;28;20131;-83
2023/08/12 23:31:25;;;;;;;14.43;3.55;;;;;;;16.58;100.00;101474.19;5092395;28;20352;-82
2023/08/12 23:37:12;;;;;;;9.00;3.38;;;;;;;16.56;100.00;101476.28;5093699;28;20277;-86
2023/08/12 23:42:58;;;;;;;10.38;3.92;;;;;;;16.49;100.00;101461.28;5093032;28;20336;-85
2023/08/12 23:48:45;;;;;;;9.35;3.47;;;;;;;16.40;100.00;101475.13;5091716;28;20051;-83
2023/08/12 23:54:32;;;;;;;11.77;3.30;;;;;;;16.26;100.00;101470.25;5092287;28;20412;-84
